CheckWX is a tool to help pilots better visualize weather data.  It is not intended as a substitute for an official pre-flight weather briefing.

08:05:49 UTC

KBIL TAF
Billings Logan International Airport
Billings, Montana, USA
KBIL 190520Z 1906/2006 21004KT P6SM SKC FM190800 24009KT P6SM SKC FM200100 23014KT P6SM SCT250

Mar-19@
06:00 UTC

Mar-19 @ 06:00 UTC

Mar-19@
08:00 UTC

Mar-19 @ 08:00 UTC

KBIL 190520Z 1906/2006 21004KT P6SM SKC

Expired

Wind
  • 210° at 4 KTS
Cloud Levels
  • Clear skies

Mar-19@
08:00 UTC

Mar-19 @ 08:00 UTC

Mar-20@
01:00 UTC

Mar-20 @ 01:00 UTC

FM190800 24009KT P6SM SKC

From

From Standard forecast or significant change

Wind
  • 240° at 9 KTS
Cloud Levels
  • Clear skies

Mar-20@
01:00 UTC

Mar-20 @ 01:00 UTC

Mar-20@
06:00 UTC

Mar-20 @ 06:00 UTC

FM200100 23014KT P6SM SCT250

From

From Standard forecast or significant change

Wind
  • 230° at 14 KTS
Cloud Levels
  • Scattered at 25,000' AGL